createdAt,value
2022-10-08T00:01:54.365Z,11.05
2022-10-08T00:06:01.386Z,10.57
2022-10-08T00:10:06.314Z,11.25
2022-10-08T00:14:09.520Z,11.07
2022-10-08T00:18:11.489Z,10.75
2022-10-08T00:22:14.009Z,11.38
2022-10-08T00:26:18.475Z,11.40
2022-10-08T00:34:23.792Z,10.00
2022-10-08T00:38:26.031Z,10.45
2022-10-08T00:42:28.082Z,10.75
2022-10-08T00:46:49.394Z,10.40
2022-10-08T00:50:51.845Z,10.02
2022-10-08T00:54:54.028Z,10.90
2022-10-08T00:58:56.023Z,10.98
2022-10-08T01:02:58.077Z,11.88
2022-10-08T01:07:29.625Z,10.35
2022-10-08T01:11:44.631Z,11.15
2022-10-08T01:16:02.429Z,13.52
2022-10-08T01:20:14.326Z,12.38
2022-10-08T01:24:44.496Z,12.20
2022-10-08T01:29:02.805Z,10.98
2022-10-08T01:33:16.033Z,12.23
2022-10-08T01:37:32.960Z,11.90
2022-10-08T01:41:35.829Z,12.35
2022-10-08T01:45:42.723Z,12.75
2022-10-08T01:49:50.656Z,12.80
2022-10-08T01:53:53.265Z,13.48
2022-10-08T01:58:01.333Z,13.45
2022-10-08T02:02:14.346Z,13.30
2022-10-08T02:06:16.949Z,13.93
2022-10-08T02:10:23.178Z,13.55
2022-10-08T02:14:31.871Z,15.88
2022-10-08T02:18:51.954Z,14.40
2022-10-08T02:22:59.075Z,15.77
2022-10-08T02:27:04.606Z,14.82
2022-10-08T02:31:14.243Z,13.50
2022-10-08T02:35:32.192Z,13.52
2022-10-08T02:39:39.169Z,12.77
2022-10-08T02:43:49.712Z,12.93
2022-10-08T02:47:56.509Z,12.82
2022-10-08T02:52:04.232Z,12.63
2022-10-08T02:56:38.916Z,11.90
2022-10-08T03:00:54.771Z,11.77
2022-10-08T03:05:03.291Z,11.50
2022-10-08T03:09:06.918Z,11.45
2022-10-08T03:13:10.747Z,12.13
2022-10-08T03:17:16.080Z,12.17
2022-10-08T03:21:19.380Z,11.43
2022-10-08T03:25:21.413Z,13.43
2022-10-08T03:29:23.529Z,12.60
2022-10-08T03:33:25.501Z,12.50
2022-10-08T03:37:27.535Z,13.10
2022-10-08T03:41:31.417Z,13.30
2022-10-08T03:45:33.635Z,12.55
2022-10-08T03:49:35.668Z,12.23
2022-10-08T03:53:39.258Z,12.85
2022-10-08T03:57:41.404Z,11.73
2022-10-08T04:01:43.657Z,11.48
2022-10-08T04:05:49.351Z,11.93
2022-10-08T04:09:51.339Z,10.95
2022-10-08T04:13:53.443Z,12.48
2022-10-08T04:17:55.415Z,12.07
2022-10-08T04:21:58.055Z,13.05
2022-10-08T04:26:00.076Z,12.40
2022-10-08T04:30:02.107Z,12.75
2022-10-08T04:34:04.134Z,12.25
2022-10-08T04:38:06.160Z,12.80
2022-10-08T04:42:08.332Z,11.23
2022-10-08T04:46:13.385Z,10.73
2022-10-08T04:50:15.513Z,10.57
2022-10-08T04:54:22.749Z,10.27
2022-10-08T04:58:25.972Z,11.90
2022-10-08T05:02:28.056Z,11.45
2022-10-08T05:06:31.627Z,12.15
2022-10-08T05:10:34.004Z,11.40
2022-10-08T05:19:40.527Z,15.48
2022-10-08T05:23:43.437Z,12.75
2022-10-08T05:27:45.482Z,12.30
2022-10-08T05:31:47.627Z,13.52
2022-10-08T05:35:49.795Z,13.82
2022-10-08T05:39:51.879Z,14.20
2022-10-08T05:43:55.125Z,12.52
2022-10-08T05:47:57.538Z,15.00
2022-10-08T05:51:59.661Z,14.43
2022-10-08T05:56:11.240Z,13.13
2022-10-08T06:00:16.797Z,12.52
2022-10-08T06:04:21.973Z,11.65
2022-10-08T06:08:24.202Z,12.95
2022-10-08T06:12:26.721Z,13.82
2022-10-08T06:16:30.469Z,14.65
2022-10-08T06:20:32.729Z,13.10
2022-10-08T06:24:34.673Z,12.20
2022-10-08T06:28:38.937Z,11.70
2022-10-08T06:32:42.231Z,11.40
2022-10-08T06:36:44.269Z,12.13
2022-10-08T06:40:46.297Z,10.15
2022-10-08T06:44:48.379Z,11.32
2022-10-08T06:48:50.546Z,10.70
2022-10-08T06:52:52.635Z,11.95
2022-10-08T06:56:55.791Z,10.07
2022-10-08T07:01:08.895Z,9.93
2022-10-08T07:05:10.921Z,10.40
2022-10-08T07:09:13.550Z,9.82
2022-10-08T07:13:15.564Z,9.38
2022-10-08T07:17:17.611Z,9.63
2022-10-08T07:21:20.992Z,8.88
2022-10-08T07:25:23.023Z,9.27
2022-10-08T07:29:26.347Z,13.93
2022-10-08T07:33:31.242Z,15.13
2022-10-08T07:37:34.072Z,10.65
2022-10-08T07:41:36.618Z,9.23
2022-10-08T07:45:49.417Z,8.52
2022-10-08T07:49:52.535Z,7.78
2022-10-08T07:53:58.806Z,7.82
2022-10-08T07:58:04.705Z,7.68
2022-10-08T08:02:06.862Z,7.75
2022-10-08T08:06:16.567Z,7.35
2022-10-08T08:10:18.547Z,8.07
2022-10-08T08:14:21.598Z,7.55
2022-10-08T08:18:24.028Z,7.78
2022-10-08T08:22:26.091Z,7.80
2022-10-08T08:26:32.943Z,10.07
2022-10-08T08:30:35.209Z,8.52
2022-10-08T08:34:39.096Z,7.57
2022-10-08T08:38:41.211Z,7.63
2022-10-08T08:42:57.210Z,6.45
2022-10-08T08:47:15.925Z,5.50
2022-10-08T08:51:17.922Z,6.35
2022-10-08T08:55:30.072Z,6.65
2022-10-08T08:59:35.866Z,8.05
2022-10-08T09:03:54.524Z,8.02
2022-10-08T09:08:02.582Z,14.50
2022-10-08T09:12:36.470Z,10.98
2022-10-08T09:16:39.904Z,6.82
2022-10-08T09:20:42.588Z,7.35
2022-10-08T09:24:46.678Z,6.38
2022-10-08T09:28:59.350Z,4.97
2022-10-08T09:33:06.681Z,4.82
2022-10-08T09:37:19.292Z,5.15
2022-10-08T09:41:21.307Z,4.95
2022-10-08T09:45:38.501Z,5.05
2022-10-08T09:49:41.283Z,5.95
2022-10-08T09:53:48.389Z,5.68
2022-10-08T09:57:55.684Z,5.90
2022-10-08T10:01:58.963Z,5.60
2022-10-08T10:06:01.679Z,6.40
2022-10-08T10:10:06.430Z,5.97
2022-10-08T10:14:24.086Z,6.35
2022-10-08T10:18:32.674Z,6.80
2022-10-08T10:23:15.178Z,7.45
2022-10-08T10:27:47.080Z,6.68
2022-10-08T10:32:04.872Z,6.68
2022-10-08T10:36:13.618Z,5.90
2022-10-08T10:40:31.901Z,6.30
2022-10-08T10:44:57.726Z,6.45
2022-10-08T10:49:00.134Z,6.45
2022-10-08T10:53:16.050Z,5.53
2022-10-08T10:57:30.025Z,5.45
2022-10-08T11:01:51.092Z,5.13
2022-10-08T11:06:13.001Z,4.82
2022-10-08T11:10:17.924Z,4.95
2022-10-08T11:14:44.889Z,5.38
2022-10-08T11:18:58.734Z,5.47
2022-10-08T11:23:06.040Z,5.00
2022-10-08T11:28:03.886Z,5.20
2022-10-08T11:32:12.634Z,5.05
2022-10-08T11:36:37.610Z,4.18
2022-10-08T11:41:12.019Z,3.80
2022-10-08T11:45:15.217Z,4.00
2022-10-08T11:49:17.115Z,4.30
2022-10-08T11:53:21.791Z,4.75
2022-10-08T12:01:59.045Z,2.88
2022-10-08T12:06:13.420Z,3.50
2022-10-08T12:10:18.405Z,4.25
2022-10-08T12:14:20.431Z,3.35
2022-10-08T12:18:26.237Z,3.13
2022-10-08T12:22:28.509Z,3.17
2022-10-08T12:26:30.466Z,3.55
2022-10-08T12:30:52.987Z,4.47
2022-10-08T12:34:55.881Z,3.40
2022-10-08T12:39:26.638Z,3.80
2022-10-08T12:43:32.053Z,3.95
2022-10-08T12:48:08.778Z,3.63
2022-10-08T12:52:18.494Z,4.95
2022-10-08T12:56:29.323Z,4.30
2022-10-08T13:00:34.570Z,3.67
2022-10-08T13:04:37.087Z,3.72
2022-10-08T13:08:40.268Z,3.40
2022-10-08T13:12:43.670Z,3.38
2022-10-08T13:21:05.304Z,3.30
2022-10-08T13:25:34.134Z,3.13
2022-10-08T13:29:37.471Z,2.70
2022-10-08T13:33:39.522Z,2.40
2022-10-08T13:37:41.716Z,2.40
2022-10-08T13:41:52.355Z,2.90
2022-10-08T13:45:54.611Z,2.33
2022-10-08T13:50:01.795Z,2.03
2022-10-08T13:54:04.063Z,1.45
2022-10-08T13:58:06.794Z,1.20
2022-10-08T14:02:13.491Z,1.40
2022-10-08T14:06:15.625Z,1.25
2022-10-08T14:10:19.078Z,1.60
2022-10-08T14:14:22.639Z,1.60
2022-10-08T14:18:24.687Z,1.60
2022-10-08T14:22:26.699Z,0.77
2022-10-08T14:26:28.903Z,0.80
2022-10-08T14:30:33.557Z,0.98
2022-10-08T14:34:35.871Z,1.05
2022-10-08T14:38:37.887Z,1.65
2022-10-08T14:42:39.864Z,1.00
2022-10-08T14:46:41.878Z,0.90
2022-10-08T14:50:43.857Z,0.82
2022-10-08T14:54:45.944Z,1.23
2022-10-08T14:58:47.974Z,1.00
2022-10-08T15:02:50.003Z,1.50
2022-10-08T15:06:52.312Z,1.40
2022-10-08T15:10:54.379Z,1.42
2022-10-08T15:14:56.519Z,1.33
2022-10-08T15:18:58.820Z,1.70
2022-10-08T15:23:01.941Z,1.90
2022-10-08T15:27:04.350Z,1.67
2022-10-08T15:31:09.995Z,2.00
2022-10-08T15:35:12.067Z,1.27
2022-10-08T15:39:17.069Z,1.50
2022-10-08T15:43:19.416Z,2.05
2022-10-08T15:47:21.475Z,3.20
2022-10-08T15:51:24.459Z,2.58
2022-10-08T15:55:26.510Z,2.30
2022-10-08T15:59:28.572Z,1.70
2022-10-08T16:03:38.074Z,2.38
2022-10-08T16:07:40.226Z,1.70
2022-10-08T16:11:42.597Z,1.58
2022-10-08T16:15:44.547Z,1.92
2022-10-08T16:19:46.590Z,2.10
2022-10-08T16:23:48.936Z,1.85
2022-10-08T16:27:51.071Z,2.45
2022-10-08T16:31:53.287Z,2.42
2022-10-08T16:35:56.038Z,2.40
2022-10-08T16:40:03.839Z,2.35
2022-10-08T16:44:13.244Z,3.13
2022-10-08T16:48:15.692Z,2.58
2022-10-08T16:52:17.714Z,2.75
2022-10-08T16:56:21.511Z,2.80
2022-10-08T17:00:23.573Z,2.97
2022-10-08T17:04:27.988Z,2.40
2022-10-08T17:12:32.636Z,2.13
2022-10-08T17:16:36.128Z,2.45
2022-10-08T17:20:38.268Z,2.85
2022-10-08T17:24:42.401Z,2.53
2022-10-08T17:32:48.288Z,2.92
2022-10-08T17:36:50.495Z,2.83
2022-10-08T17:40:52.430Z,5.50
2022-10-08T17:44:54.463Z,6.78
2022-10-08T17:48:56.891Z,5.95
2022-10-08T17:52:58.895Z,8.05
2022-10-08T17:57:00.868Z,6.93
2022-10-08T18:01:14.571Z,7.10
2022-10-08T18:05:16.704Z,6.83
2022-10-08T18:09:20.586Z,6.50
2022-10-08T18:13:22.620Z,5.32
2022-10-08T18:17:25.358Z,5.95
2022-10-08T18:21:27.876Z,6.82
2022-10-08T18:25:30.120Z,5.90
2022-10-08T18:29:32.166Z,9.13
2022-10-08T18:33:36.231Z,10.68
2022-10-08T18:37:38.283Z,9.52
2022-10-08T18:41:45.757Z,8.70
2022-10-08T18:45:47.855Z,8.18
2022-10-08T18:49:50.001Z,5.93
2022-10-08T18:53:53.610Z,5.93
2022-10-08T18:57:55.575Z,5.47
2022-10-08T19:01:59.431Z,4.95
2022-10-08T19:06:01.647Z,4.80
2022-10-08T19:10:04.313Z,4.35
2022-10-08T19:14:08.424Z,5.13
2022-10-08T19:18:10.760Z,4.40
2022-10-08T19:22:13.057Z,4.50
2022-10-08T19:26:15.231Z,4.93
2022-10-08T19:30:20.277Z,4.32
2022-10-08T19:34:27.654Z,3.60
2022-10-08T19:42:32.555Z,2.75
2022-10-08T19:46:34.950Z,2.80
2022-10-08T19:50:37.127Z,2.90
2022-10-08T19:54:39.076Z,3.10
2022-10-08T19:58:47.645Z,3.40
2022-10-08T20:02:51.396Z,3.22
2022-10-08T20:06:54.360Z,3.40
2022-10-08T20:10:59.310Z,5.38
2022-10-08T20:15:01.308Z,4.75
2022-10-08T20:19:06.771Z,3.80
2022-10-08T20:23:09.613Z,3.97
2022-10-08T20:27:11.739Z,3.38
2022-10-08T20:31:24.014Z,3.88
2022-10-08T20:35:26.365Z,4.20
2022-10-08T20:39:28.731Z,4.50
2022-10-08T20:43:33.590Z,5.25
2022-10-08T20:47:35.601Z,5.07
2022-10-08T20:51:40.038Z,5.22
2022-10-08T20:59:44.045Z,5.40
2022-10-08T21:03:47.449Z,5.40
2022-10-08T21:07:49.374Z,4.72
2022-10-08T21:11:53.659Z,5.63
2022-10-08T21:16:03.719Z,5.82
2022-10-08T21:20:06.616Z,4.88
2022-10-08T21:24:09.436Z,5.35
2022-10-08T21:28:11.563Z,5.63
2022-10-08T21:32:13.673Z,4.80
2022-10-08T21:36:19.033Z,5.63
2022-10-08T21:40:21.046Z,4.95
2022-10-08T21:44:23.297Z,5.30
2022-10-08T21:48:26.380Z,4.45
2022-10-08T21:52:28.337Z,5.22
2022-10-08T21:56:32.934Z,5.43
2022-10-08T22:00:35.058Z,5.93
2022-10-08T22:04:37.211Z,6.18
2022-10-08T22:08:39.192Z,6.63
2022-10-08T22:12:41.171Z,5.28
2022-10-08T22:16:43.538Z,5.65
2022-10-08T22:20:46.044Z,5.05
2022-10-08T22:24:48.375Z,5.65
2022-10-08T22:28:50.986Z,6.03
2022-10-08T22:32:53.167Z,5.80
2022-10-08T22:36:55.080Z,6.28
2022-10-08T22:41:02.071Z,5.75
2022-10-08T22:45:04.268Z,6.10
2022-10-08T22:49:09.138Z,6.30
2022-10-08T22:53:11.457Z,6.25
2022-10-08T22:57:13.551Z,6.65
2022-10-08T23:01:18.586Z,6.55
2022-10-08T23:05:21.004Z,6.10
2022-10-08T23:09:22.937Z,5.80
2022-10-08T23:13:25.469Z,5.53
2022-10-08T23:17:27.493Z,5.63
2022-10-08T23:21:30.023Z,4.78
2022-10-08T23:25:32.174Z,5.07
2022-10-08T23:29:34.116Z,6.25
2022-10-08T23:33:38.301Z,6.20
2022-10-08T23:37:40.263Z,6.65
2022-10-08T23:41:42.388Z,5.53
2022-10-08T23:45:44.487Z,6.25
2022-10-08T23:49:46.516Z,6.07
2022-10-08T23:53:48.943Z,5.57
2022-10-08T23:57:50.872Z,6.72
